createdAt,value
2022-10-23T00:01:14.120Z,11.20
2022-10-23T00:03:42.286Z,14.35
2022-10-23T00:06:10.866Z,16.92
2022-10-23T00:08:39.044Z,13.77
2022-10-23T00:11:08.694Z,15.93
2022-10-23T00:13:40.142Z,17.83
2022-10-23T00:16:09.315Z,15.30
2022-10-23T00:18:38.415Z,12.73
2022-10-23T00:21:07.660Z,17.17
2022-10-23T00:23:35.589Z,14.07
2022-10-23T00:26:03.984Z,14.15
2022-10-23T00:28:32.147Z,18.23
2022-10-23T00:31:04.448Z,11.13
2022-10-23T00:33:33.721Z,17.23
2022-10-23T00:36:01.548Z,18.67
2022-10-23T00:38:29.480Z,15.20
2022-10-23T00:40:57.346Z,15.57
2022-10-23T00:43:28.924Z,18.25
2022-10-23T00:45:56.930Z,15.57
2022-10-23T00:48:27.261Z,13.77
2022-10-23T00:50:55.903Z,15.02
2022-10-23T00:53:25.972Z,16.90
2022-10-23T00:55:57.609Z,13.52
2022-10-23T00:58:26.076Z,14.65
2022-10-23T01:00:56.439Z,13.57
2022-10-23T01:03:29.082Z,12.32
2022-10-23T01:06:12.839Z,16.05
2022-10-23T01:08:48.432Z,13.45
2022-10-23T01:11:20.032Z,15.90
2022-10-23T01:14:00.598Z,13.13
2022-10-23T01:16:37.908Z,13.80
2022-10-23T01:19:17.687Z,14.23
2022-10-23T01:21:55.324Z,15.75
2022-10-23T01:24:34.074Z,13.50
2022-10-23T01:27:21.972Z,15.00
2022-10-23T01:29:59.172Z,16.45
2022-10-23T01:32:40.285Z,13.65
2022-10-23T01:35:14.305Z,17.02
2022-10-23T01:37:45.896Z,17.60
2022-10-23T01:40:24.107Z,15.63
2022-10-23T01:42:56.391Z,16.20
2022-10-23T01:45:33.361Z,16.05
2022-10-23T01:48:03.858Z,13.82
2022-10-23T01:50:33.247Z,16.63
2022-10-23T01:53:04.570Z,12.93
2022-10-23T01:55:33.985Z,14.38
2022-10-23T01:58:08.460Z,15.98
2022-10-23T02:00:42.423Z,13.50
2022-10-23T02:03:13.167Z,14.35
2022-10-23T02:05:40.998Z,12.77
2022-10-23T02:08:08.941Z,15.75
2022-10-23T02:10:45.784Z,15.60
2022-10-23T02:13:20.153Z,17.30
2022-10-23T02:15:50.321Z,15.52
2022-10-23T02:18:34.654Z,16.37
2022-10-23T02:21:08.710Z,15.13
2022-10-23T02:23:41.186Z,19.25
2022-10-23T02:26:16.659Z,16.58
2022-10-23T02:28:53.044Z,20.98
2022-10-23T02:31:23.091Z,19.47
2022-10-23T02:33:51.324Z,20.33
2022-10-23T02:36:20.548Z,19.85
2022-10-23T02:38:48.393Z,17.70
2022-10-23T02:41:26.391Z,21.38
2022-10-23T02:44:09.267Z,19.23
2022-10-23T02:46:50.895Z,20.25
2022-10-23T02:49:25.638Z,21.13
2022-10-23T02:52:06.460Z,17.88
2022-10-23T02:55:00.356Z,19.13
2022-10-23T02:57:34.867Z,20.73
2022-10-23T03:00:12.057Z,20.60
2022-10-23T03:02:45.430Z,17.73
2022-10-23T03:05:20.565Z,18.27
2022-10-23T03:07:49.890Z,17.33
2022-10-23T03:10:19.261Z,19.10
2022-10-23T03:12:48.774Z,18.70
2022-10-23T03:15:19.278Z,19.10
2022-10-23T03:17:49.444Z,18.67
2022-10-23T03:20:17.803Z,21.42
2022-10-23T03:22:46.511Z,19.47
2022-10-23T03:25:14.372Z,16.63
2022-10-23T03:27:42.224Z,20.08
2022-10-23T03:30:13.262Z,17.95
2022-10-23T03:32:43.497Z,20.02
2022-10-23T03:35:11.723Z,17.80
2022-10-23T03:37:39.725Z,18.67
2022-10-23T03:40:09.280Z,16.27
2022-10-23T03:42:37.142Z,15.95
2022-10-23T03:45:05.506Z,18.80
2022-10-23T03:47:35.262Z,17.13
2022-10-23T03:50:05.157Z,16.45
2022-10-23T03:52:34.901Z,22.83
2022-10-23T03:55:02.663Z,18.50
2022-10-23T03:57:30.467Z,16.27
2022-10-23T03:59:58.216Z,16.97
2022-10-23T04:02:30.769Z,18.38
2022-10-23T04:04:58.779Z,14.45
2022-10-23T04:07:28.084Z,17.27
2022-10-23T04:09:56.206Z,17.48
2022-10-23T04:12:25.148Z,19.30
2022-10-23T04:14:53.166Z,16.55
2022-10-23T04:17:21.093Z,17.13
2022-10-23T04:19:50.710Z,18.05
2022-10-23T04:22:18.529Z,22.00
2022-10-23T04:24:48.045Z,15.50
2022-10-23T04:27:19.463Z,17.42
2022-10-23T04:29:49.385Z,16.50
2022-10-23T04:32:17.278Z,14.82
2022-10-23T04:34:45.624Z,14.18
2022-10-23T04:37:13.859Z,15.47
2022-10-23T04:39:41.711Z,15.35
2022-10-23T04:42:15.340Z,15.60
2022-10-23T04:44:43.318Z,14.45
2022-10-23T04:47:12.511Z,15.98
2022-10-23T04:49:52.815Z,14.77
2022-10-23T04:52:43.814Z,17.02
2022-10-23T04:55:31.565Z,14.27
2022-10-23T04:58:14.952Z,15.15
2022-10-23T05:00:44.903Z,15.15
2022-10-23T05:03:17.611Z,15.47
2022-10-23T05:05:45.980Z,17.20
2022-10-23T05:08:45.636Z,18.63
2022-10-23T05:11:38.275Z,16.38
2022-10-23T05:14:10.300Z,16.17
2022-10-23T05:16:40.615Z,11.20
2022-10-23T05:19:11.785Z,13.57
2022-10-23T05:21:41.440Z,12.63
2022-10-23T05:24:11.627Z,13.60
2022-10-23T05:26:40.076Z,14.40
2022-10-23T05:29:10.607Z,13.43
2022-10-23T05:31:39.519Z,13.93
2022-10-23T05:34:13.866Z,15.75
2022-10-23T05:36:45.566Z,11.95
2022-10-23T05:39:14.690Z,18.40
2022-10-23T05:41:42.786Z,13.93
2022-10-23T05:44:11.948Z,12.57
2022-10-23T05:47:09.263Z,13.48
2022-10-23T05:50:03.269Z,13.88
2022-10-23T05:52:51.753Z,14.05
2022-10-23T05:55:47.792Z,13.80
2022-10-23T05:58:36.428Z,13.88
2022-10-23T06:01:25.942Z,14.15
2022-10-23T06:04:02.307Z,11.45
2022-10-23T06:06:52.656Z,15.57
2022-10-23T06:09:20.416Z,11.27
2022-10-23T06:11:50.030Z,15.07
2022-10-23T06:14:21.695Z,11.90
2022-10-23T06:16:53.021Z,14.05
2022-10-23T06:19:21.272Z,11.90
2022-10-23T06:21:54.309Z,12.33
2022-10-23T06:24:28.019Z,10.82
2022-10-23T06:27:01.645Z,9.43
2022-10-23T06:29:41.586Z,13.70
2022-10-23T06:32:10.773Z,14.88
2022-10-23T06:34:39.914Z,13.50
2022-10-23T06:37:09.511Z,15.43
2022-10-23T06:39:47.748Z,12.60
2022-10-23T06:42:37.018Z,12.48
2022-10-23T06:45:23.590Z,14.25
2022-10-23T06:47:55.533Z,12.20
2022-10-23T06:50:30.860Z,14.18
2022-10-23T06:52:59.559Z,15.93
2022-10-23T06:55:30.742Z,13.65
2022-10-23T06:57:58.853Z,15.68
2022-10-23T07:00:26.924Z,14.23
2022-10-23T07:02:57.152Z,15.10
2022-10-23T07:05:25.070Z,11.15
2022-10-23T07:07:53.383Z,10.77
2022-10-23T07:10:26.654Z,12.70
2022-10-23T07:13:01.116Z,13.30
2022-10-23T07:15:52.725Z,15.00
2022-10-23T07:18:26.823Z,14.20
2022-10-23T07:21:13.370Z,16.27
2022-10-23T07:23:42.048Z,10.45
2022-10-23T07:26:14.302Z,14.03
2022-10-23T07:28:43.891Z,16.10
2022-10-23T07:31:14.185Z,12.35
2022-10-23T07:34:07.532Z,12.05
2022-10-23T07:36:35.543Z,11.60
2022-10-23T07:39:03.638Z,12.67
2022-10-23T07:41:32.535Z,11.40
2022-10-23T07:44:00.387Z,14.10
2022-10-23T07:46:31.287Z,14.50
2022-10-23T07:48:59.078Z,10.20
2022-10-23T07:51:28.384Z,10.00
2022-10-23T07:54:00.887Z,10.27
2022-10-23T07:56:47.392Z,14.43
2022-10-23T07:59:23.502Z,15.60
2022-10-23T08:01:56.550Z,13.52
2022-10-23T08:04:31.395Z,14.97
2022-10-23T08:07:12.530Z,13.02
2022-10-23T08:09:43.670Z,13.73
2022-10-23T08:12:11.533Z,10.35
2022-10-23T08:14:39.582Z,13.63
2022-10-23T08:17:09.711Z,12.37
2022-10-23T08:20:16.059Z,11.55
2022-10-23T08:22:47.264Z,12.15
2022-10-23T08:25:24.964Z,11.60
2022-10-23T08:27:54.373Z,10.52
2022-10-23T08:30:22.602Z,11.30
2022-10-23T08:32:50.564Z,10.63
2022-10-23T08:35:19.233Z,12.13
2022-10-23T08:37:48.340Z,10.23
2022-10-23T08:40:18.171Z,9.20
2022-10-23T08:43:13.552Z,11.03
2022-10-23T08:45:59.604Z,10.77
2022-10-23T08:49:10.294Z,7.55
2022-10-23T08:51:58.628Z,9.35
2022-10-23T08:54:35.140Z,9.82
2022-10-23T08:57:11.169Z,9.50
2022-10-23T08:59:45.060Z,11.60
2022-10-23T09:02:18.699Z,11.95
2022-10-23T09:04:49.218Z,10.48
2022-10-23T09:07:26.428Z,11.65
2022-10-23T09:10:11.592Z,11.13
2022-10-23T09:12:39.819Z,8.57
2022-10-23T09:15:28.392Z,11.45
2022-10-23T09:18:00.295Z,10.45
2022-10-23T09:20:34.065Z,12.63
2022-10-23T09:23:04.312Z,13.17
2022-10-23T09:25:39.036Z,12.55
2022-10-23T09:28:07.239Z,14.00
2022-10-23T09:30:37.314Z,10.77
2022-10-23T09:33:16.014Z,9.48
2022-10-23T09:35:54.823Z,8.03
2022-10-23T09:38:31.037Z,9.18
2022-10-23T09:41:03.006Z,9.38
2022-10-23T09:43:30.856Z,8.77
2022-10-23T09:46:06.420Z,10.35
2022-10-23T09:48:36.311Z,11.00
2022-10-23T09:51:14.838Z,11.65
2022-10-23T09:53:51.502Z,10.60
2022-10-23T09:56:28.638Z,10.77
2022-10-23T09:58:59.008Z,11.20
2022-10-23T10:01:29.063Z,12.30
2022-10-23T10:04:08.677Z,9.13
2022-10-23T10:06:36.560Z,8.85
2022-10-23T10:09:08.852Z,9.98
2022-10-23T10:11:45.414Z,8.40
2022-10-23T10:14:32.229Z,10.87
2022-10-23T10:17:02.837Z,8.65
2022-10-23T10:19:40.291Z,10.85
2022-10-23T10:22:20.061Z,10.48
2022-10-23T10:24:57.277Z,10.93
2022-10-23T10:27:42.025Z,11.00
2022-10-23T10:30:15.358Z,10.52
2022-10-23T10:32:51.237Z,10.95
2022-10-23T10:35:34.714Z,9.77
2022-10-23T10:38:27.196Z,10.35
2022-10-23T10:41:15.387Z,10.23
2022-10-23T10:43:52.630Z,23.42
2022-10-23T10:46:31.455Z,9.95
2022-10-23T10:49:02.964Z,9.20
2022-10-23T10:51:43.902Z,8.95
2022-10-23T10:54:23.143Z,11.57
2022-10-23T10:56:51.215Z,9.55
2022-10-23T10:59:25.445Z,9.20
2022-10-23T11:01:58.999Z,12.90
2022-10-23T11:04:35.194Z,10.25
2022-10-23T11:07:08.387Z,8.27
2022-10-23T11:09:36.225Z,10.65
2022-10-23T11:12:04.207Z,10.63
2022-10-23T11:14:35.436Z,9.25
2022-10-23T11:17:10.080Z,8.35
2022-10-23T11:19:44.996Z,10.07
2022-10-23T11:22:22.868Z,11.05
2022-10-23T11:25:07.727Z,10.88
2022-10-23T11:27:49.319Z,15.13
2022-10-23T11:30:25.017Z,10.35
2022-10-23T11:33:09.553Z,11.53
2022-10-23T11:35:49.707Z,9.73
2022-10-23T11:38:19.811Z,9.23
2022-10-23T11:43:27.983Z,11.75
2022-10-23T11:45:57.481Z,10.17
2022-10-23T11:48:37.935Z,11.02
2022-10-23T11:51:06.686Z,10.63
2022-10-23T11:53:41.425Z,11.95
2022-10-23T11:56:34.166Z,11.27
2022-10-23T11:59:23.858Z,12.50
2022-10-23T12:01:54.582Z,10.35
2022-10-23T12:04:25.821Z,10.07
2022-10-23T12:06:56.083Z,9.80
2022-10-23T12:09:28.587Z,9.05
2022-10-23T12:12:17.866Z,11.57
2022-10-23T12:14:48.236Z,10.10
2022-10-23T12:17:31.425Z,16.08
2022-10-23T12:20:11.337Z,8.02
2022-10-23T12:22:46.395Z,12.50
2022-10-23T12:25:17.402Z,9.37
2022-10-23T12:27:53.791Z,12.18
2022-10-23T12:30:24.305Z,11.60
2022-10-23T12:33:07.449Z,10.65
2022-10-23T12:36:22.563Z,9.32
2022-10-23T12:38:50.768Z,10.43
2022-10-23T12:41:23.700Z,11.98
2022-10-23T12:43:54.388Z,10.65
2022-10-23T12:46:31.682Z,10.85
2022-10-23T12:49:02.361Z,8.85
2022-10-23T12:51:35.632Z,9.53
2022-10-23T12:54:04.479Z,9.65
2022-10-23T12:56:36.774Z,10.60
2022-10-23T12:59:06.370Z,9.93
2022-10-23T13:01:36.383Z,9.65
2022-10-23T13:04:14.543Z,11.77
2022-10-23T13:06:42.945Z,13.57
2022-10-23T13:09:21.022Z,8.32
2022-10-23T13:12:03.215Z,9.27
2022-10-23T13:14:34.309Z,10.68
2022-10-23T13:17:04.042Z,10.80
2022-10-23T13:19:33.653Z,10.25
2022-10-23T13:22:02.278Z,10.85
2022-10-23T13:24:34.145Z,9.60
2022-10-23T13:27:02.063Z,9.43
2022-10-23T13:29:32.351Z,10.23
2022-10-23T13:32:11.029Z,8.93
2022-10-23T13:34:40.205Z,7.88
2022-10-23T13:37:24.921Z,11.00
2022-10-23T13:40:02.751Z,8.10
2022-10-23T13:42:30.597Z,7.10
2022-10-23T13:44:58.831Z,8.40
2022-10-23T13:47:26.580Z,8.90
2022-10-23T13:49:58.712Z,7.85
2022-10-23T13:52:26.492Z,10.43
2022-10-23T13:54:54.365Z,11.00
2022-10-23T13:57:22.109Z,10.10
2022-10-23T13:59:49.981Z,11.35
2022-10-23T14:02:21.294Z,11.77
2022-10-23T14:04:49.677Z,7.57
2022-10-23T14:07:19.067Z,7.13
2022-10-23T14:09:47.475Z,7.80
2022-10-23T14:12:16.960Z,6.97
2022-10-23T14:14:44.881Z,8.70
2022-10-23T14:17:12.669Z,9.68
2022-10-23T14:19:40.428Z,11.63
2022-10-23T14:22:08.233Z,10.75
2022-10-23T14:24:37.797Z,9.85
2022-10-23T14:27:05.913Z,7.75
2022-10-23T14:29:33.829Z,10.88
2022-10-23T14:32:01.934Z,7.47
2022-10-23T14:34:32.609Z,7.93
2022-10-23T14:37:08.880Z,7.68
2022-10-23T14:39:40.432Z,8.25
2022-10-23T14:42:12.420Z,7.90
2022-10-23T14:44:43.526Z,8.87
2022-10-23T14:47:24.633Z,6.20
2022-10-23T14:50:02.391Z,8.60
2022-10-23T14:52:36.379Z,7.82
2022-10-23T14:55:13.740Z,10.68
2022-10-23T14:57:48.763Z,6.37
2022-10-23T15:00:18.208Z,6.50
2022-10-23T15:02:50.037Z,10.13
2022-10-23T15:05:20.287Z,8.25
2022-10-23T15:07:52.661Z,8.95
2022-10-23T15:10:22.933Z,6.70
2022-10-23T15:12:52.025Z,10.52
2022-10-23T15:15:25.178Z,7.55
2022-10-23T15:18:19.238Z,8.32
2022-10-23T15:20:56.022Z,7.60
2022-10-23T15:23:25.708Z,7.20
2022-10-23T15:25:59.545Z,9.60
2022-10-23T15:28:27.716Z,7.85
2022-10-23T15:30:56.081Z,10.73
2022-10-23T15:33:24.964Z,8.68
2022-10-23T15:35:53.546Z,6.87
2022-10-23T15:38:22.452Z,9.38
2022-10-23T15:40:50.870Z,8.23
2022-10-23T15:43:20.260Z,8.93
2022-10-23T15:45:48.062Z,9.55
2022-10-23T15:48:16.000Z,8.33
2022-10-23T15:50:43.721Z,5.75
2022-10-23T15:53:11.395Z,7.10
2022-10-23T15:55:39.113Z,6.32
2022-10-23T15:58:07.053Z,7.68
2022-10-23T16:00:36.670Z,7.80
2022-10-23T16:03:05.216Z,7.95
2022-10-23T16:05:32.956Z,6.90
2022-10-23T16:08:00.758Z,22.75
2022-10-23T16:10:28.778Z,11.05
2022-10-23T16:12:56.541Z,8.57
2022-10-23T16:15:24.378Z,7.20
2022-10-23T16:17:54.184Z,6.07
2022-10-23T16:20:22.051Z,7.05
2022-10-23T16:22:49.808Z,10.73
2022-10-23T16:25:17.629Z,8.10
2022-10-23T16:27:46.371Z,7.80
2022-10-23T16:30:16.218Z,7.07
2022-10-23T16:32:44.428Z,8.15
2022-10-23T16:35:13.428Z,8.73
2022-10-23T16:37:55.496Z,8.67
2022-10-23T16:40:23.936Z,15.45
2022-10-23T16:43:10.505Z,13.90
2022-10-23T16:45:42.522Z,11.38
2022-10-23T16:48:10.236Z,7.40
2022-10-23T16:50:41.027Z,10.47
2022-10-23T16:53:08.933Z,8.95
2022-10-23T16:55:40.834Z,11.38
2022-10-23T16:58:08.621Z,9.85
2022-10-23T17:00:36.330Z,7.88
2022-10-23T17:03:05.464Z,9.27
2022-10-23T17:05:35.188Z,12.10
2022-10-23T17:08:04.299Z,11.05
2022-10-23T17:10:32.046Z,12.10
2022-10-23T17:12:59.770Z,9.43
2022-10-23T17:15:27.469Z,8.13
2022-10-23T17:17:55.242Z,10.07
2022-10-23T17:20:23.102Z,9.43
2022-10-23T17:22:50.781Z,12.57
2022-10-23T17:25:20.184Z,10.57
2022-10-23T17:27:47.906Z,7.40
2022-10-23T17:30:15.724Z,9.40
2022-10-23T17:32:43.746Z,9.40
2022-10-23T17:35:11.964Z,8.43
2022-10-23T17:37:39.682Z,10.65
2022-10-23T17:40:08.345Z,9.00
2022-10-23T17:42:37.395Z,8.38
2022-10-23T17:45:05.655Z,9.10
2022-10-23T17:47:33.567Z,8.63
2022-10-23T17:50:01.468Z,10.25
2022-10-23T17:52:29.336Z,9.03
2022-10-23T17:54:57.087Z,8.93
2022-10-23T17:57:24.880Z,7.95
2022-10-23T17:59:53.987Z,8.43
2022-10-23T18:02:21.837Z,11.43
2022-10-23T18:04:49.653Z,9.17
2022-10-23T18:07:17.417Z,12.10
2022-10-23T18:09:45.901Z,6.03
2022-10-23T18:12:13.689Z,8.20
2022-10-23T18:14:41.505Z,12.25
2022-10-23T18:17:10.727Z,10.60
2022-10-23T18:19:38.481Z,10.82
2022-10-23T18:22:06.420Z,10.23
2022-10-23T18:24:34.365Z,9.32
2022-10-23T18:27:02.280Z,11.98
2022-10-23T18:29:30.074Z,10.53
2022-10-23T18:31:57.900Z,7.75
2022-10-23T18:34:27.169Z,9.63
2022-10-23T18:36:55.860Z,7.38
2022-10-23T18:39:26.476Z,12.32
2022-10-23T18:41:57.383Z,11.47
2022-10-23T18:44:26.941Z,10.77
2022-10-23T18:46:56.757Z,8.73
2022-10-23T18:49:24.775Z,10.95
2022-10-23T18:51:54.007Z,8.10
2022-10-23T18:54:22.577Z,9.40
2022-10-23T18:56:50.453Z,9.82
2022-10-23T18:59:20.273Z,6.93
2022-10-23T19:01:48.443Z,11.20
2022-10-23T19:04:17.900Z,8.95
2022-10-23T19:06:46.675Z,7.60
2022-10-23T19:09:16.082Z,7.30
2022-10-23T19:11:45.299Z,11.55
2022-10-23T19:14:13.672Z,10.93
2022-10-23T19:16:45.514Z,11.43
2022-10-23T19:19:18.807Z,9.03
2022-10-23T19:21:47.629Z,10.88
2022-10-23T19:24:20.152Z,8.68
2022-10-23T19:26:48.606Z,12.18
2022-10-23T19:29:20.279Z,7.65
2022-10-23T19:31:49.849Z,8.10
2022-10-23T19:34:19.908Z,12.30
2022-10-23T19:36:47.950Z,13.77
2022-10-23T19:39:17.502Z,9.43
2022-10-23T19:41:45.456Z,7.47
2022-10-23T19:44:14.597Z,10.43
2022-10-23T19:46:42.716Z,10.50
2022-10-23T19:49:11.448Z,9.68
2022-10-23T19:51:39.496Z,8.45
2022-10-23T19:54:09.658Z,12.57
2022-10-23T19:56:39.015Z,10.13
2022-10-23T19:59:07.006Z,10.15
2022-10-23T20:01:36.117Z,9.40
2022-10-23T20:04:03.963Z,9.45
2022-10-23T20:06:34.543Z,13.52
2022-10-23T20:09:02.912Z,8.30
2022-10-23T20:11:32.146Z,8.27
2022-10-23T20:14:01.148Z,7.70
2022-10-23T20:16:31.004Z,9.30
2022-10-23T20:18:59.521Z,13.52
2022-10-23T20:21:27.334Z,9.67
2022-10-23T20:23:57.027Z,7.18
2022-10-23T20:26:24.835Z,8.82
2022-10-23T20:28:54.918Z,9.35
2022-10-23T20:31:25.953Z,9.50
2022-10-23T20:33:54.170Z,7.70
2022-10-23T20:36:25.075Z,9.15
2022-10-23T20:38:53.050Z,9.13
2022-10-23T20:41:21.453Z,10.55
2022-10-23T20:43:49.449Z,7.47
2022-10-23T20:46:17.634Z,9.07
2022-10-23T20:48:47.072Z,7.05
2022-10-23T20:51:16.755Z,11.82
2022-10-23T20:53:47.712Z,6.07
2022-10-23T20:56:17.485Z,10.32
2022-10-23T20:58:45.724Z,7.63
2022-10-23T21:01:16.271Z,8.38
2022-10-23T21:03:49.848Z,7.30
2022-10-23T21:06:18.892Z,7.38
2022-10-23T21:08:47.313Z,7.18
2022-10-23T21:11:16.631Z,7.93
2022-10-23T21:13:45.753Z,8.00
2022-10-23T21:16:15.200Z,8.25
2022-10-23T21:18:47.039Z,10.90
2022-10-23T21:21:19.205Z,7.78
2022-10-23T21:23:48.240Z,8.43
2022-10-23T21:26:19.391Z,6.95
2022-10-23T21:28:56.411Z,7.32
2022-10-23T21:31:36.250Z,8.88
2022-10-23T21:34:05.305Z,8.43
2022-10-23T21:36:48.264Z,9.53
2022-10-23T21:39:22.483Z,8.18
2022-10-23T21:41:50.395Z,9.90
2022-10-23T21:44:18.057Z,7.53
2022-10-23T21:46:45.715Z,8.02
2022-10-23T21:49:13.640Z,7.90
2022-10-23T21:51:42.710Z,8.52
2022-10-23T21:54:14.718Z,7.55
2022-10-23T21:56:45.049Z,8.75
2022-10-23T21:59:17.057Z,6.90
2022-10-23T22:01:49.885Z,7.07
2022-10-23T22:04:19.952Z,6.45
2022-10-23T22:06:50.709Z,6.13
2022-10-23T22:09:20.400Z,7.75
2022-10-23T22:11:49.597Z,8.20
2022-10-23T22:14:20.733Z,6.03
2022-10-23T22:16:49.324Z,7.78
2022-10-23T22:19:18.641Z,6.40
2022-10-23T22:21:46.823Z,6.70
2022-10-23T22:24:17.439Z,6.45
2022-10-23T22:26:46.887Z,6.90
2022-10-23T22:29:17.693Z,8.05
2022-10-23T22:31:48.873Z,6.55
2022-10-23T22:34:27.162Z,5.40
2022-10-23T22:37:08.948Z,8.60
2022-10-23T22:39:51.166Z,8.17
2022-10-23T22:42:19.081Z,7.13
2022-10-23T22:44:47.351Z,8.05
2022-10-23T22:47:15.452Z,7.25
2022-10-23T22:49:43.097Z,9.18
2022-10-23T22:52:10.837Z,8.40
2022-10-23T22:54:51.446Z,8.70
2022-10-23T22:57:32.623Z,7.75
2022-10-23T23:00:01.480Z,9.02
2022-10-23T23:02:34.860Z,8.38
2022-10-23T23:05:07.385Z,8.13
2022-10-23T23:07:40.671Z,5.93
2022-10-23T23:10:10.744Z,6.82
2022-10-23T23:12:38.499Z,6.90
2022-10-23T23:15:07.034Z,7.22
2022-10-23T23:17:34.758Z,5.83
2022-10-23T23:20:02.503Z,5.47
2022-10-23T23:22:30.235Z,5.20
2022-10-23T23:24:57.932Z,4.65
2022-10-23T23:27:27.557Z,8.68
2022-10-23T23:29:57.899Z,6.50
2022-10-23T23:32:25.680Z,6.22
2022-10-23T23:34:53.428Z,5.25
2022-10-23T23:37:21.097Z,7.45
2022-10-23T23:39:48.956Z,6.95
2022-10-23T23:42:16.900Z,4.30
2022-10-23T23:44:55.965Z,4.82
2022-10-23T23:47:30.932Z,4.40
2022-10-23T23:49:58.665Z,5.07
2022-10-23T23:52:26.408Z,5.10
2022-10-23T23:54:54.274Z,5.50
2022-10-23T23:57:21.960Z,6.18
2022-10-23T23:59:51.757Z,4.40
